METAR Torp

ENTO 250350Z 18003KT 150V210 0200 R18/0800N R36/0800D FG VV002 14/14 Q1024

METAR Gardermoen

ENGM 250350Z 17007KT 5000 BR BKN002 OVC005 15/14 Q1024 TEMPO 3000 BR BKN003

Webcam Kjeller